Indian Springs, Indiana
Current Conditions -  °F | °C
As of 10:15 AM on Monday 24 Nov 2014 (Local Time) from KDCY Reporting Station
Overcast Overcast  
Wind Chill:   Ceiling: 2000
Heat Index:   Visibility: 10mi
Dew Point:   Wind: 18mph
Humidity: 87%   Direction: 260°W
Pressure: 29.63"   Gusts: 25mph
Location:  38.6262°N, 86.7615°W
Report Text: KDCY 241615Z AUTO 26016G22KT 10SM OVC020 05/03 A2963 RMK AO2 T00500030
Loading
Personal Weather Stations






























Interactive Weather Map New forecast layout! Learn more

10-Day Weather Forecast

Advertisements
Track Severe Weather on mobile